sensor_id;sensor_type;location;lat;lon;timestamp;P1;durP1;ratioP1;P2;durP2;ratioP2
25437;SDS011;13364;49.084;9.978;2023-03-01T00:01:37;24.90;;;14.93;;
25437;SDS011;13364;49.084;9.978;2023-03-01T00:04:04;26.40;;;15.00;;
25437;SDS011;13364;49.084;9.978;2023-03-01T00:06:31;24.77;;;14.20;;
25437;SDS011;13364;49.084;9.978;2023-03-01T00:08:59;27.48;;;14.63;;
25437;SDS011;13364;49.084;9.978;2023-03-01T00:11:27;25.90;;;15.43;;
25437;SDS011;13364;49.084;9.978;2023-03-01T00:13:57;27.55;;;15.80;;
25437;SDS011;13364;49.084;9.978;2023-03-01T00:16:29;32.75;;;15.93;;
25437;SDS011;13364;49.084;9.978;2023-03-01T00:19:00;29.95;;;15.50;;
25437;SDS011;13364;49.084;9.978;2023-03-01T00:21:27;27.75;;;14.65;;
25437;SDS011;13364;49.084;9.978;2023-03-01T00:23:54;31.63;;;15.45;;
25437;SDS011;13364;49.084;9.978;2023-03-01T00:26:22;29.17;;;16.45;;
25437;SDS011;13364;49.084;9.978;2023-03-01T00:28:50;30.02;;;14.95;;
25437;SDS011;13364;49.084;9.978;2023-03-01T00:31:19;30.85;;;15.05;;
25437;SDS011;13364;49.084;9.978;2023-03-01T00:33:54;24.58;;;14.23;;
25437;SDS011;13364;49.084;9.978;2023-03-01T00:36:26;30.30;;;15.77;;
25437;SDS011;13364;49.084;9.978;2023-03-01T00:38:58;31.42;;;16.42;;
25437;SDS011;13364;49.084;9.978;2023-03-01T00:41:25;26.85;;;15.32;;
25437;SDS011;13364;49.084;9.978;2023-03-01T00:43:54;27.63;;;14.52;;
25437;SDS011;13364;49.084;9.978;2023-03-01T00:46:25;25.02;;;14.07;;
25437;SDS011;13364;49.084;9.978;2023-03-01T00:48:53;25.30;;;15.13;;
25437;SDS011;13364;49.084;9.978;2023-03-01T00:51:22;26.48;;;14.77;;
25437;SDS011;13364;49.084;9.978;2023-03-01T00:53:51;30.90;;;16.67;;
25437;SDS011;13364;49.084;9.978;2023-03-01T00:56:19;24.83;;;11.82;;
25437;SDS011;13364;49.084;9.978;2023-03-01T00:58:47;27.70;;;15.88;;
25437;SDS011;13364;49.084;9.978;2023-03-01T01:01:16;28.05;;;15.30;;
25437;SDS011;13364;49.084;9.978;2023-03-01T01:03:49;28.52;;;14.60;;
25437;SDS011;13364;49.084;9.978;2023-03-01T01:06:20;29.30;;;16.35;;
25437;SDS011;13364;49.084;9.978;2023-03-01T01:08:48;28.90;;;14.77;;
25437;SDS011;13364;49.084;9.978;2023-03-01T01:11:16;29.08;;;15.93;;
25437;SDS011;13364;49.084;9.978;2023-03-01T01:13:44;28.52;;;14.52;;
25437;SDS011;13364;49.084;9.978;2023-03-01T01:16:13;31.60;;;15.77;;
25437;SDS011;13364;49.084;9.978;2023-03-01T01:18:41;29.58;;;15.68;;
25437;SDS011;13364;49.084;9.978;2023-03-01T01:21:10;27.25;;;14.93;;
25437;SDS011;13364;49.084;9.978;2023-03-01T01:23:39;24.73;;;14.48;;
25437;SDS011;13364;49.084;9.978;2023-03-01T01:26:08;25.98;;;14.68;;
25437;SDS011;13364;49.084;9.978;2023-03-01T01:28:37;31.08;;;16.10;;
25437;SDS011;13364;49.084;9.978;2023-03-01T01:31:04;29.55;;;15.93;;
25437;SDS011;13364;49.084;9.978;2023-03-01T01:33:32;27.40;;;14.57;;
25437;SDS011;13364;49.084;9.978;2023-03-01T01:36:00;31.58;;;17.05;;
25437;SDS011;13364;49.084;9.978;2023-03-01T01:38:27;27.65;;;14.98;;
25437;SDS011;13364;49.084;9.978;2023-03-01T01:40:54;31.83;;;14.95;;
25437;SDS011;13364;49.084;9.978;2023-03-01T01:43:26;24.85;;;14.60;;
25437;SDS011;13364;49.084;9.978;2023-03-01T01:45:56;29.15;;;14.48;;
25437;SDS011;13364;49.084;9.978;2023-03-01T01:48:28;28.08;;;15.20;;
25437;SDS011;13364;49.084;9.978;2023-03-01T01:51:07;26.73;;;15.02;;
25437;SDS011;13364;49.084;9.978;2023-03-01T01:53:46;29.38;;;14.73;;
25437;SDS011;13364;49.084;9.978;2023-03-01T01:56:17;26.20;;;15.20;;
25437;SDS011;13364;49.084;9.978;2023-03-01T01:58:46;29.02;;;16.58;;
25437;SDS011;13364;49.084;9.978;2023-03-01T02:01:14;30.92;;;15.63;;
25437;SDS011;13364;49.084;9.978;2023-03-01T02:03:42;24.83;;;15.02;;
25437;SDS011;13364;49.084;9.978;2023-03-01T02:06:19;25.15;;;13.93;;
25437;SDS011;13364;49.084;9.978;2023-03-01T02:09:00;29.60;;;15.43;;
25437;SDS011;13364;49.084;9.978;2023-03-01T02:11:31;25.98;;;15.00;;
25437;SDS011;13364;49.084;9.978;2023-03-01T02:14:00;29.23;;;15.98;;
25437;SDS011;13364;49.084;9.978;2023-03-01T02:16:27;27.98;;;15.82;;
25437;SDS011;13364;49.084;9.978;2023-03-01T02:18:56;28.45;;;15.10;;
25437;SDS011;13364;49.084;9.978;2023-03-01T02:21:48;31.25;;;15.45;;
25437;SDS011;13364;49.084;9.978;2023-03-01T02:24:26;24.17;;;13.32;;
25437;SDS011;13364;49.084;9.978;2023-03-01T02:27:04;26.13;;;14.85;;
25437;SDS011;13364;49.084;9.978;2023-03-01T02:29:32;22.00;;;13.68;;
25437;SDS011;13364;49.084;9.978;2023-03-01T02:32:00;28.33;;;14.73;;
25437;SDS011;13364;49.084;9.978;2023-03-01T02:34:30;32.20;;;15.88;;
25437;SDS011;13364;49.084;9.978;2023-03-01T02:37:03;29.70;;;15.50;;
25437;SDS011;13364;49.084;9.978;2023-03-01T02:39:42;31.90;;;15.95;;
25437;SDS011;13364;49.084;9.978;2023-03-01T02:42:14;21.15;;;11.23;;
25437;SDS011;13364;49.084;9.978;2023-03-01T02:44:46;29.20;;;14.32;;
25437;SDS011;13364;49.084;9.978;2023-03-01T02:47:15;30.55;;;15.00;;
25437;SDS011;13364;49.084;9.978;2023-03-01T02:49:42;26.45;;;14.88;;
25437;SDS011;13364;49.084;9.978;2023-03-01T02:54:47;30.55;;;15.63;;
25437;SDS011;13364;49.084;9.978;2023-03-01T02:57:20;29.40;;;15.15;;
25437;SDS011;13364;49.084;9.978;2023-03-01T03:02:19;24.95;;;14.18;;
25437;SDS011;13364;49.084;9.978;2023-03-01T03:04:48;30.50;;;14.30;;
25437;SDS011;13364;49.084;9.978;2023-03-01T03:10:16;33.35;;;14.95;;
25437;SDS011;13364;49.084;9.978;2023-03-01T03:12:55;30.67;;;15.85;;
25437;SDS011;13364;49.084;9.978;2023-03-01T03:15:30;36.53;;;17.52;;
25437;SDS011;13364;49.084;9.978;2023-03-01T03:17:58;33.20;;;17.40;;
25437;SDS011;13364;49.084;9.978;2023-03-01T03:20:26;28.05;;;14.35;;
25437;SDS011;13364;49.084;9.978;2023-03-01T03:22:55;31.48;;;16.45;;
25437;SDS011;13364;49.084;9.978;2023-03-01T03:25:25;27.27;;;14.82;;
25437;SDS011;13364;49.084;9.978;2023-03-01T03:27:54;29.88;;;16.23;;
25437;SDS011;13364;49.084;9.978;2023-03-01T03:30:26;28.00;;;15.65;;
25437;SDS011;13364;49.084;9.978;2023-03-01T03:32:54;26.23;;;15.00;;
25437;SDS011;13364;49.084;9.978;2023-03-01T03:35:25;29.25;;;16.25;;
25437;SDS011;13364;49.084;9.978;2023-03-01T03:37:57;30.50;;;15.55;;
25437;SDS011;13364;49.084;9.978;2023-03-01T03:40:30;29.35;;;16.45;;
25437;SDS011;13364;49.084;9.978;2023-03-01T03:42:57;32.33;;;17.27;;
25437;SDS011;13364;49.084;9.978;2023-03-01T03:45:24;31.50;;;17.40;;
25437;SDS011;13364;49.084;9.978;2023-03-01T03:47:51;31.55;;;16.65;;
25437;SDS011;13364;49.084;9.978;2023-03-01T03:50:18;35.83;;;16.63;;
25437;SDS011;13364;49.084;9.978;2023-03-01T03:52:45;33.50;;;17.67;;
25437;SDS011;13364;49.084;9.978;2023-03-01T03:55:13;28.45;;;15.73;;
25437;SDS011;13364;49.084;9.978;2023-03-01T03:57:40;31.40;;;18.48;;
25437;SDS011;13364;49.084;9.978;2023-03-01T04:00:11;26.85;;;16.63;;
25437;SDS011;13364;49.084;9.978;2023-03-01T04:02:41;31.17;;;17.23;;
25437;SDS011;13364;49.084;9.978;2023-03-01T04:05:10;30.30;;;16.30;;
25437;SDS011;13364;49.084;9.978;2023-03-01T04:07:38;30.27;;;16.70;;
25437;SDS011;13364;49.084;9.978;2023-03-01T04:10:07;27.80;;;16.60;;
25437;SDS011;13364;49.084;9.978;2023-03-01T04:12:37;34.60;;;17.20;;
25437;SDS011;13364;49.084;9.978;2023-03-01T04:15:05;29.15;;;16.73;;
25437;SDS011;13364;49.084;9.978;2023-03-01T04:17:43;30.80;;;17.73;;
25437;SDS011;13364;49.084;9.978;2023-03-01T04:20:11;35.25;;;15.15;;
25437;SDS011;13364;49.084;9.978;2023-03-01T04:25:07;34.03;;;16.67;;
25437;SDS011;13364;49.084;9.978;2023-03-01T04:27:35;31.95;;;15.40;;
25437;SDS011;13364;49.084;9.978;2023-03-01T04:30:03;37.70;;;18.20;;
25437;SDS011;13364;49.084;9.978;2023-03-01T04:32:30;31.08;;;17.13;;
25437;SDS011;13364;49.084;9.978;2023-03-01T04:34:58;33.22;;;18.65;;
25437;SDS011;13364;49.084;9.978;2023-03-01T04:37:25;35.20;;;16.15;;
25437;SDS011;13364;49.084;9.978;2023-03-01T04:39:52;35.15;;;18.90;;
25437;SDS011;13364;49.084;9.978;2023-03-01T04:42:19;29.92;;;15.60;;
25437;SDS011;13364;49.084;9.978;2023-03-01T04:44:46;31.25;;;16.52;;
25437;SDS011;13364;49.084;9.978;2023-03-01T04:47:14;33.15;;;16.17;;
25437;SDS011;13364;49.084;9.978;2023-03-01T04:49:41;32.17;;;17.48;;
25437;SDS011;13364;49.084;9.978;2023-03-01T04:52:08;27.85;;;13.88;;
25437;SDS011;13364;49.084;9.978;2023-03-01T04:54:35;33.10;;;17.10;;
25437;SDS011;13364;49.084;9.978;2023-03-01T04:57:02;30.05;;;16.98;;
25437;SDS011;13364;49.084;9.978;2023-03-01T04:59:29;31.80;;;17.00;;
25437;SDS011;13364;49.084;9.978;2023-03-01T05:01:56;32.67;;;17.27;;
25437;SDS011;13364;49.084;9.978;2023-03-01T05:04:24;35.35;;;16.98;;
25437;SDS011;13364;49.084;9.978;2023-03-01T05:06:51;27.13;;;14.52;;
25437;SDS011;13364;49.084;9.978;2023-03-01T05:09:19;37.93;;;18.37;;
25437;SDS011;13364;49.084;9.978;2023-03-01T05:11:46;32.72;;;14.65;;
25437;SDS011;13364;49.084;9.978;2023-03-01T05:14:14;33.92;;;17.48;;
25437;SDS011;13364;49.084;9.978;2023-03-01T05:16:41;42.38;;;18.55;;
25437;SDS011;13364;49.084;9.978;2023-03-01T05:19:08;35.47;;;17.95;;
25437;SDS011;13364;49.084;9.978;2023-03-01T05:21:42;36.25;;;18.23;;
25437;SDS011;13364;49.084;9.978;2023-03-01T05:24:29;31.55;;;15.38;;
25437;SDS011;13364;49.084;9.978;2023-03-01T05:29:25;29.55;;;14.57;;
25437;SDS011;13364;49.084;9.978;2023-03-01T05:31:59;32.08;;;16.25;;
25437;SDS011;13364;49.084;9.978;2023-03-01T05:34:30;31.73;;;17.80;;
25437;SDS011;13364;49.084;9.978;2023-03-01T05:36:59;28.27;;;15.75;;
25437;SDS011;13364;49.084;9.978;2023-03-01T05:39:26;34.38;;;17.40;;
25437;SDS011;13364;49.084;9.978;2023-03-01T05:41:56;30.70;;;14.40;;
25437;SDS011;13364;49.084;9.978;2023-03-01T05:48:03;34.50;;;17.13;;
25437;SDS011;13364;49.084;9.978;2023-03-01T05:50:35;33.85;;;16.27;;
25437;SDS011;13364;49.084;9.978;2023-03-01T05:55:35;33.38;;;16.67;;
25437;SDS011;13364;49.084;9.978;2023-03-01T05:58:04;35.92;;;18.48;;
25437;SDS011;13364;49.084;9.978;2023-03-01T06:00:33;34.20;;;16.58;;
25437;SDS011;13364;49.084;9.978;2023-03-01T06:03:01;35.33;;;17.65;;
25437;SDS011;13364;49.084;9.978;2023-03-01T06:05:28;38.10;;;19.27;;
25437;SDS011;13364;49.084;9.978;2023-03-01T06:07:58;32.30;;;16.42;;
25437;SDS011;13364;49.084;9.978;2023-03-01T06:10:26;37.75;;;17.17;;
25437;SDS011;13364;49.084;9.978;2023-03-01T06:12:54;33.50;;;16.60;;
25437;SDS011;13364;49.084;9.978;2023-03-01T06:15:21;33.10;;;16.77;;
25437;SDS011;13364;49.084;9.978;2023-03-01T06:21:13;32.75;;;16.90;;
25437;SDS011;13364;49.084;9.978;2023-03-01T06:23:40;33.63;;;16.02;;
25437;SDS011;13364;49.084;9.978;2023-03-01T06:26:07;34.35;;;17.55;;
25437;SDS011;13364;49.084;9.978;2023-03-01T06:28:35;32.78;;;15.65;;
25437;SDS011;13364;49.084;9.978;2023-03-01T06:31:02;33.00;;;16.35;;
25437;SDS011;13364;49.084;9.978;2023-03-01T06:33:29;35.25;;;17.05;;
25437;SDS011;13364;49.084;9.978;2023-03-01T06:39:31;32.13;;;15.93;;
25437;SDS011;13364;49.084;9.978;2023-03-01T06:41:59;33.35;;;16.83;;
25437;SDS011;13364;49.084;9.978;2023-03-01T06:44:33;31.30;;;17.20;;
25437;SDS011;13364;49.084;9.978;2023-03-01T06:47:00;36.35;;;16.27;;
25437;SDS011;13364;49.084;9.978;2023-03-01T06:49:27;28.98;;;15.75;;
25437;SDS011;13364;49.084;9.978;2023-03-01T06:51:54;34.47;;;16.88;;
25437;SDS011;13364;49.084;9.978;2023-03-01T06:54:21;34.88;;;17.75;;
25437;SDS011;13364;49.084;9.978;2023-03-01T06:56:48;32.33;;;16.42;;
25437;SDS011;13364;49.084;9.978;2023-03-01T06:59:16;34.70;;;16.92;;
25437;SDS011;13364;49.084;9.978;2023-03-01T07:01:44;29.30;;;14.27;;
25437;SDS011;13364;49.084;9.978;2023-03-01T07:04:11;35.20;;;17.30;;
25437;SDS011;13364;49.084;9.978;2023-03-01T07:06:39;34.10;;;14.83;;
25437;SDS011;13364;49.084;9.978;2023-03-01T07:09:06;34.20;;;15.90;;
25437;SDS011;13364;49.084;9.978;2023-03-01T07:11:33;33.78;;;17.58;;
25437;SDS011;13364;49.084;9.978;2023-03-01T07:14:00;37.22;;;19.60;;
25437;SDS011;13364;49.084;9.978;2023-03-01T07:16:27;32.28;;;16.80;;
25437;SDS011;13364;49.084;9.978;2023-03-01T07:18:55;31.70;;;15.90;;
25437;SDS011;13364;49.084;9.978;2023-03-01T07:21:24;32.50;;;15.93;;
25437;SDS011;13364;49.084;9.978;2023-03-01T07:23:51;31.42;;;16.42;;
25437;SDS011;13364;49.084;9.978;2023-03-01T07:26:18;30.92;;;17.15;;
25437;SDS011;13364;49.084;9.978;2023-03-01T07:28:45;31.63;;;16.75;;
25437;SDS011;13364;49.084;9.978;2023-03-01T07:31:12;31.00;;;17.08;;
25437;SDS011;13364;49.084;9.978;2023-03-01T07:33:40;33.90;;;17.00;;
25437;SDS011;13364;49.084;9.978;2023-03-01T07:36:07;33.60;;;17.95;;
25437;SDS011;13364;49.084;9.978;2023-03-01T07:38:35;33.50;;;17.60;;
25437;SDS011;13364;49.084;9.978;2023-03-01T07:41:02;33.90;;;16.27;;
25437;SDS011;13364;49.084;9.978;2023-03-01T07:43:30;31.98;;;16.67;;
25437;SDS011;13364;49.084;9.978;2023-03-01T07:45:58;34.60;;;18.02;;
25437;SDS011;13364;49.084;9.978;2023-03-01T07:48:27;29.45;;;16.13;;
25437;SDS011;13364;49.084;9.978;2023-03-01T07:50:57;31.35;;;16.52;;
25437;SDS011;13364;49.084;9.978;2023-03-01T07:53:25;30.65;;;16.88;;
25437;SDS011;13364;49.084;9.978;2023-03-01T07:58:36;31.92;;;17.88;;
25437;SDS011;13364;49.084;9.978;2023-03-01T08:01:05;30.25;;;14.63;;
25437;SDS011;13364;49.084;9.978;2023-03-01T08:03:33;31.77;;;17.15;;
25437;SDS011;13364;49.084;9.978;2023-03-01T08:06:01;32.13;;;17.70;;
25437;SDS011;13364;49.084;9.978;2023-03-01T08:08:29;34.80;;;17.25;;
25437;SDS011;13364;49.084;9.978;2023-03-01T08:10:57;32.05;;;16.10;;
25437;SDS011;13364;49.084;9.978;2023-03-01T08:13:26;34.63;;;17.25;;
25437;SDS011;13364;49.084;9.978;2023-03-01T08:15:53;30.70;;;17.27;;
25437;SDS011;13364;49.084;9.978;2023-03-01T08:18:20;30.73;;;18.20;;
25437;SDS011;13364;49.084;9.978;2023-03-01T08:20:47;34.25;;;17.60;;
25437;SDS011;13364;49.084;9.978;2023-03-01T08:23:14;34.50;;;18.25;;
25437;SDS011;13364;49.084;9.978;2023-03-01T08:25:42;32.70;;;17.90;;
25437;SDS011;13364;49.084;9.978;2023-03-01T08:28:08;31.33;;;17.48;;
25437;SDS011;13364;49.084;9.978;2023-03-01T08:30:35;33.25;;;18.60;;
25437;SDS011;13364;49.084;9.978;2023-03-01T08:33:02;31.38;;;17.60;;
25437;SDS011;13364;49.084;9.978;2023-03-01T08:35:30;35.28;;;17.92;;
25437;SDS011;13364;49.084;9.978;2023-03-01T08:37:57;33.35;;;18.20;;
25437;SDS011;13364;49.084;9.978;2023-03-01T08:40:24;32.80;;;17.77;;
25437;SDS011;13364;49.084;9.978;2023-03-01T08:42:51;29.67;;;17.75;;
25437;SDS011;13364;49.084;9.978;2023-03-01T08:45:18;33.03;;;17.85;;
25437;SDS011;13364;49.084;9.978;2023-03-01T08:47:45;31.83;;;18.05;;
25437;SDS011;13364;49.084;9.978;2023-03-01T08:50:12;29.92;;;17.27;;
25437;SDS011;13364;49.084;9.978;2023-03-01T08:52:39;32.53;;;17.42;;
25437;SDS011;13364;49.084;9.978;2023-03-01T08:55:06;36.00;;;18.88;;
25437;SDS011;13364;49.084;9.978;2023-03-01T08:57:34;32.95;;;18.95;;
25437;SDS011;13364;49.084;9.978;2023-03-01T09:00:01;33.22;;;18.80;;
25437;SDS011;13364;49.084;9.978;2023-03-01T09:02:29;34.93;;;19.10;;
25437;SDS011;13364;49.084;9.978;2023-03-01T09:04:56;30.25;;;18.20;;
25437;SDS011;13364;49.084;9.978;2023-03-01T09:07:23;33.90;;;20.00;;
25437;SDS011;13364;49.084;9.978;2023-03-01T09:09:54;32.53;;;18.73;;
25437;SDS011;13364;49.084;9.978;2023-03-01T09:12:21;33.60;;;18.60;;
25437;SDS011;13364;49.084;9.978;2023-03-01T09:14:48;33.75;;;18.90;;
25437;SDS011;13364;49.084;9.978;2023-03-01T09:17:15;35.90;;;19.02;;
25437;SDS011;13364;49.084;9.978;2023-03-01T09:19:42;29.00;;;18.13;;
25437;SDS011;13364;49.084;9.978;2023-03-01T09:22:10;31.90;;;17.63;;
25437;SDS011;13364;49.084;9.978;2023-03-01T09:24:37;33.35;;;17.83;;
25437;SDS011;13364;49.084;9.978;2023-03-01T09:27:04;27.75;;;17.38;;
25437;SDS011;13364;49.084;9.978;2023-03-01T09:29:35;30.85;;;17.73;;
25437;SDS011;13364;49.084;9.978;2023-03-01T09:32:03;36.08;;;20.98;;
25437;SDS011;13364;49.084;9.978;2023-03-01T09:34:30;32.13;;;18.98;;
25437;SDS011;13364;49.084;9.978;2023-03-01T09:36:57;31.63;;;18.20;;
25437;SDS011;13364;49.084;9.978;2023-03-01T09:39:24;34.20;;;19.30;;
25437;SDS011;13364;49.084;9.978;2023-03-01T09:42:02;29.35;;;17.65;;
25437;SDS011;13364;49.084;9.978;2023-03-01T09:44:32;28.58;;;17.33;;
25437;SDS011;13364;49.084;9.978;2023-03-01T09:47:17;30.00;;;17.83;;
25437;SDS011;13364;49.084;9.978;2023-03-01T09:49:57;28.98;;;17.85;;
25437;SDS011;13364;49.084;9.978;2023-03-01T09:55:26;29.65;;;17.90;;
25437;SDS011;13364;49.084;9.978;2023-03-01T09:58:06;36.05;;;18.88;;
25437;SDS011;13364;49.084;9.978;2023-03-01T10:00:59;31.27;;;18.40;;
25437;SDS011;13364;49.084;9.978;2023-03-01T10:04:21;35.90;;;19.45;;
25437;SDS011;13364;49.084;9.978;2023-03-01T10:09:28;27.48;;;17.85;;
25437;SDS011;13364;49.084;9.978;2023-03-01T10:11:58;28.30;;;16.17;;
25437;SDS011;13364;49.084;9.978;2023-03-01T10:14:33;28.88;;;17.42;;
25437;SDS011;13364;49.084;9.978;2023-03-01T10:17:25;29.25;;;17.60;;
25437;SDS011;13364;49.084;9.978;2023-03-01T10:20:19;30.13;;;17.25;;
25437;SDS011;13364;49.084;9.978;2023-03-01T10:22:50;29.13;;;17.55;;
25437;SDS011;13364;49.084;9.978;2023-03-01T10:25:22;28.23;;;16.48;;
25437;SDS011;13364;49.084;9.978;2023-03-01T10:27:54;29.42;;;16.33;;
25437;SDS011;13364;49.084;9.978;2023-03-01T10:30:35;28.27;;;16.77;;
25437;SDS011;13364;49.084;9.978;2023-03-01T10:33:10;26.70;;;15.05;;
25437;SDS011;13364;49.084;9.978;2023-03-01T10:38:14;28.75;;;16.60;;
25437;SDS011;13364;49.084;9.978;2023-03-01T10:43:46;25.05;;;16.08;;
25437;SDS011;13364;49.084;9.978;2023-03-01T10:51:42;28.35;;;17.02;;
25437;SDS011;13364;49.084;9.978;2023-03-01T10:57:01;24.75;;;16.38;;
25437;SDS011;13364;49.084;9.978;2023-03-01T10:59:33;26.30;;;15.35;;
25437;SDS011;13364;49.084;9.978;2023-03-01T11:10:36;27.02;;;15.98;;
25437;SDS011;13364;49.084;9.978;2023-03-01T11:13:07;30.80;;;17.88;;
25437;SDS011;13364;49.084;9.978;2023-03-01T11:15:41;28.40;;;15.82;;
25437;SDS011;13364;49.084;9.978;2023-03-01T11:18:19;28.20;;;16.80;;
25437;SDS011;13364;49.084;9.978;2023-03-01T11:20:56;28.73;;;17.45;;
25437;SDS011;13364;49.084;9.978;2023-03-01T11:23:27;32.65;;;17.05;;
25437;SDS011;13364;49.084;9.978;2023-03-01T11:25:56;28.27;;;17.15;;
25437;SDS011;13364;49.084;9.978;2023-03-01T11:28:29;26.50;;;17.50;;
25437;SDS011;13364;49.084;9.978;2023-03-01T11:31:09;26.55;;;16.63;;
25437;SDS011;13364;49.084;9.978;2023-03-01T11:33:49;26.65;;;17.33;;
25437;SDS011;13364;49.084;9.978;2023-03-01T11:36:54;26.00;;;16.55;;
25437;SDS011;13364;49.084;9.978;2023-03-01T11:41:56;28.15;;;17.20;;
25437;SDS011;13364;49.084;9.978;2023-03-01T11:44:44;29.92;;;17.17;;
25437;SDS011;13364;49.084;9.978;2023-03-01T11:47:31;25.40;;;15.73;;
25437;SDS011;13364;49.084;9.978;2023-03-01T11:50:25;27.65;;;16.30;;
25437;SDS011;13364;49.084;9.978;2023-03-01T12:09:36;28.90;;;16.90;;
25437;SDS011;13364;49.084;9.978;2023-03-01T12:23:25;27.10;;;16.13;;
25437;SDS011;13364;49.084;9.978;2023-03-01T12:25:58;24.85;;;15.70;;
25437;SDS011;13364;49.084;9.978;2023-03-01T12:39:03;23.70;;;15.40;;
25437;SDS011;13364;49.084;9.978;2023-03-01T12:42:01;25.42;;;15.88;;
25437;SDS011;13364;49.084;9.978;2023-03-01T12:50:57;24.58;;;15.45;;
25437;SDS011;13364;49.084;9.978;2023-03-01T12:53:30;26.23;;;16.42;;
25437;SDS011;13364;49.084;9.978;2023-03-01T12:56:02;27.60;;;16.35;;
25437;SDS011;13364;49.084;9.978;2023-03-01T12:58:43;26.38;;;15.65;;
25437;SDS011;13364;49.084;9.978;2023-03-01T13:06:39;24.73;;;15.53;;
25437;SDS011;13364;49.084;9.978;2023-03-01T13:11:42;26.50;;;16.92;;
25437;SDS011;13364;49.084;9.978;2023-03-01T13:16:52;29.42;;;16.50;;
25437;SDS011;13364;49.084;9.978;2023-03-01T13:19:21;27.30;;;16.92;;
25437;SDS011;13364;49.084;9.978;2023-03-01T13:21:51;27.40;;;16.33;;
25437;SDS011;13364;49.084;9.978;2023-03-01T13:24:43;28.85;;;18.08;;
25437;SDS011;13364;49.084;9.978;2023-03-01T13:27:11;28.17;;;15.93;;
25437;SDS011;13364;49.084;9.978;2023-03-01T13:29:59;28.10;;;16.77;;
25437;SDS011;13364;49.084;9.978;2023-03-01T13:32:30;26.92;;;16.83;;
25437;SDS011;13364;49.084;9.978;2023-03-01T13:37:46;26.63;;;16.58;;
25437;SDS011;13364;49.084;9.978;2023-03-01T13:42:51;26.70;;;13.25;;
25437;SDS011;13364;49.084;9.978;2023-03-01T13:45:40;27.67;;;16.00;;
25437;SDS011;13364;49.084;9.978;2023-03-01T13:48:16;28.17;;;16.33;;
25437;SDS011;13364;49.084;9.978;2023-03-01T13:50:51;27.75;;;16.90;;
25437;SDS011;13364;49.084;9.978;2023-03-01T13:53:26;26.25;;;16.52;;
25437;SDS011;13364;49.084;9.978;2023-03-01T13:56:00;25.67;;;16.42;;
25437;SDS011;13364;49.084;9.978;2023-03-01T13:58:33;28.02;;;17.08;;
25437;SDS011;13364;49.084;9.978;2023-03-01T14:01:53;25.52;;;15.55;;
25437;SDS011;13364;49.084;9.978;2023-03-01T14:04:20;28.35;;;15.50;;
25437;SDS011;13364;49.084;9.978;2023-03-01T14:06:52;26.23;;;14.55;;
25437;SDS011;13364;49.084;9.978;2023-03-01T14:09:34;24.20;;;14.80;;
25437;SDS011;13364;49.084;9.978;2023-03-01T14:14:44;22.20;;;14.65;;
25437;SDS011;13364;49.084;9.978;2023-03-01T14:17:16;25.35;;;15.40;;
25437;SDS011;13364;49.084;9.978;2023-03-01T14:19:55;24.30;;;15.25;;
25437;SDS011;13364;49.084;9.978;2023-03-01T14:22:28;24.50;;;15.20;;
25437;SDS011;13364;49.084;9.978;2023-03-01T14:25:05;26.83;;;15.25;;
25437;SDS011;13364;49.084;9.978;2023-03-01T14:27:41;24.95;;;15.15;;
25437;SDS011;13364;49.084;9.978;2023-03-01T14:30:11;20.73;;;15.02;;
25437;SDS011;13364;49.084;9.978;2023-03-01T14:32:42;24.40;;;15.85;;
25437;SDS011;13364;49.084;9.978;2023-03-01T14:35:22;24.25;;;15.75;;
25437;SDS011;13364;49.084;9.978;2023-03-01T14:37:54;26.15;;;15.30;;
25437;SDS011;13364;49.084;9.978;2023-03-01T14:40:26;21.38;;;14.38;;
25437;SDS011;13364;49.084;9.978;2023-03-01T14:42:59;24.65;;;15.05;;
25437;SDS011;13364;49.084;9.978;2023-03-01T14:45:28;27.63;;;15.27;;
25437;SDS011;13364;49.084;9.978;2023-03-01T14:48:00;23.02;;;15.10;;
25437;SDS011;13364;49.084;9.978;2023-03-01T14:50:30;22.50;;;15.45;;
25437;SDS011;13364;49.084;9.978;2023-03-01T14:53:03;25.60;;;14.43;;
25437;SDS011;13364;49.084;9.978;2023-03-01T14:55:33;25.33;;;15.15;;
25437;SDS011;13364;49.084;9.978;2023-03-01T14:58:09;31.10;;;21.15;;
25437;SDS011;13364;49.084;9.978;2023-03-01T15:00:43;24.00;;;15.00;;
25437;SDS011;13364;49.084;9.978;2023-03-01T15:03:19;23.90;;;14.30;;
25437;SDS011;13364;49.084;9.978;2023-03-01T15:05:52;24.30;;;13.57;;
25437;SDS011;13364;49.084;9.978;2023-03-01T15:08:21;19.05;;;13.07;;
25437;SDS011;13364;49.084;9.978;2023-03-01T15:13:32;22.27;;;12.93;;
25437;SDS011;13364;49.084;9.978;2023-03-01T15:16:13;21.23;;;14.82;;
25437;SDS011;13364;49.084;9.978;2023-03-01T15:19:01;29.15;;;15.65;;
25437;SDS011;13364;49.084;9.978;2023-03-01T15:21:34;26.75;;;15.00;;
25437;SDS011;13364;49.084;9.978;2023-03-01T15:26:53;24.08;;;14.85;;
25437;SDS011;13364;49.084;9.978;2023-03-01T15:29:25;22.63;;;14.07;;
25437;SDS011;13364;49.084;9.978;2023-03-01T15:32:04;22.73;;;14.27;;
25437;SDS011;13364;49.084;9.978;2023-03-01T15:34:48;24.20;;;14.75;;
25437;SDS011;13364;49.084;9.978;2023-03-01T15:40:32;25.33;;;14.60;;
25437;SDS011;13364;49.084;9.978;2023-03-01T15:42:59;25.65;;;13.70;;
25437;SDS011;13364;49.084;9.978;2023-03-01T15:45:28;26.07;;;15.67;;
25437;SDS011;13364;49.084;9.978;2023-03-01T15:48:15;25.85;;;14.57;;
25437;SDS011;13364;49.084;9.978;2023-03-01T15:50:53;26.67;;;14.38;;
25437;SDS011;13364;49.084;9.978;2023-03-01T15:53:21;28.05;;;14.75;;
25437;SDS011;13364;49.084;9.978;2023-03-01T15:55:48;24.67;;;14.63;;
25437;SDS011;13364;49.084;9.978;2023-03-01T15:58:20;27.30;;;15.50;;
25437;SDS011;13364;49.084;9.978;2023-03-01T16:00:49;24.55;;;14.48;;
25437;SDS011;13364;49.084;9.978;2023-03-01T16:03:29;21.60;;;14.88;;
25437;SDS011;13364;49.084;9.978;2023-03-01T16:05:56;23.50;;;14.25;;
25437;SDS011;13364;49.084;9.978;2023-03-01T16:08:23;25.08;;;14.80;;
25437;SDS011;13364;49.084;9.978;2023-03-01T16:10:50;21.95;;;13.00;;
25437;SDS011;13364;49.084;9.978;2023-03-01T16:13:17;24.92;;;14.93;;
25437;SDS011;13364;49.084;9.978;2023-03-01T16:15:45;23.77;;;14.50;;
25437;SDS011;13364;49.084;9.978;2023-03-01T16:18:13;27.92;;;14.65;;
25437;SDS011;13364;49.084;9.978;2023-03-01T16:20:40;25.90;;;14.23;;
25437;SDS011;13364;49.084;9.978;2023-03-01T16:23:09;28.27;;;15.10;;
25437;SDS011;13364;49.084;9.978;2023-03-01T16:25:37;25.85;;;14.65;;
25437;SDS011;13364;49.084;9.978;2023-03-01T16:28:05;21.85;;;13.13;;
25437;SDS011;13364;49.084;9.978;2023-03-01T16:30:36;23.55;;;14.63;;
25437;SDS011;13364;49.084;9.978;2023-03-01T16:33:06;25.33;;;13.55;;
25437;SDS011;13364;49.084;9.978;2023-03-01T16:35:54;23.52;;;13.20;;
25437;SDS011;13364;49.084;9.978;2023-03-01T16:38:21;21.90;;;13.63;;
25437;SDS011;13364;49.084;9.978;2023-03-01T16:40:49;21.25;;;12.65;;
25437;SDS011;13364;49.084;9.978;2023-03-01T16:43:17;16.27;;;9.13;;
25437;SDS011;13364;49.084;9.978;2023-03-01T16:45:44;24.15;;;14.45;;
25437;SDS011;13364;49.084;9.978;2023-03-01T16:48:13;24.88;;;14.70;;
25437;SDS011;13364;49.084;9.978;2023-03-01T16:50:40;24.63;;;13.60;;
25437;SDS011;13364;49.084;9.978;2023-03-01T16:53:07;23.42;;;13.07;;
25437;SDS011;13364;49.084;9.978;2023-03-01T16:55:34;21.55;;;13.85;;